Overview Statistics Trail Chart Weather Telemetry Raw packets
 

This is the latest recevied weather packets stored in our database for station/object KD8DNO-13. If no packets are shown the sender has not sent any weather packets the latest 10 day(s).

<< 3 4 5 6 7 8 9 >>
Time Temp. Humidity Pressure Rain* Wind** Luminosity Snow
1788537784 24.44° C 92% 1018.9 hPa 7.11 mm - - -
1788537483 23.89° C 92% 1018.9 hPa 7.11 mm - - -
1788537184 24.44° C 91% 1018.9 hPa 7.11 mm - - -
1788536883 25° C 90% 1019.3 hPa 7.11 mm - - -
1788536583 25° C 90% 1019.3 hPa 7.11 mm - - -
1788536283 25° C 89% 1018.6 hPa 6.86 mm - - -
1788535983 25.56° C 89% 1018.6 hPa 2.03 mm - - -
1788535683 25.56° C 89% 1018.6 hPa 1.02 mm - - -
1788535383 25.56° C 88% 1018.6 hPa 0.51 mm - - -
1788535083 27.22° C 84% 1018.6 hPa 0.51 mm - - -
1788534783 27.78° C 82% 1018.9 hPa 0.25 mm - - -
1788534483 27.78° C 80% 1018.9 hPa 0 mm - - -
1788534183 28.33° C 78% 1018.6 hPa 0 mm - - -
1788533883 28.33° C 80% 1018.6 hPa 0 mm - - -
1788533583 27.78° C 80% 1018.6 hPa 0 mm - - -
1788533283 27.22° C 82% 1018.2 hPa 0 mm - - -
1788532983 27.22° C 82% 1018.2 hPa 0 mm - - -
1788532683 26.67° C 83% 1018.2 hPa 0 mm - - -
1788532383 26.67° C 83% 1018.2 hPa 0 mm - - -
1788532083 26.67° C 84% 1018.2 hPa 0 mm - - -
1788531783 26.11° C 84% 1018.2 hPa 0 mm - - -
1788531483 26.11° C 85% 1018.2 hPa 0 mm - - -
1788531183 25.56° C 85% 1017.9 hPa 0 mm - - -
1788530884 25.56° C 85% 1017.9 hPa 0 mm - - -
1788530584 25.56° C 85% 1017.9 hPa 0 mm - - -

* Rain latest hour (hover to see other rain measurements)
** Current wind speed in m/s (hover to see current wind gust speed)